Veterans Administration, Ohio
Current Conditions -  °F | °C
As of 4:53 PM on Monday 20 Oct 2014 (Local Time) from KMGY Reporting Station
Overcast Overcast  
Wind Chill: 59°   Ceiling: 3600
Heat Index: 59°   Visibility: 10mi
Dew Point: 54°   Wind: 5mph
Humidity: 83%   Direction: 190°S
Pressure: 29.85"   Gusts: NA
Location:  39.7511°N, 84.2493°W
Report Text: KMGY 202053Z AUTO 19004KT 10SM BKN036 BKN047 OVC055 15/12 A2985 RMK AO2 SLP107 60005 T01500122 56007
Loading
Personal Weather Stations






























Interactive Weather Map
Tropical Storm Tracking
New forecast layout! Learn more

10-Day Weather Forecast

Advertisements
Track Severe Weather on mobile